This is the latest recevied weather packets stored in our database for station/object XE2RCS-1. If no packets are shown the sender has not sent any weather packets the latest 10 day(s).
| Time | Temp. | Humidity | Pressure | Rain* | Wind** | Luminosity | Snow |
|---|---|---|---|---|---|---|---|
| 1778075366 | 25° C | 14% | 1013 hPa | 0 mm | - | - | - |
| 1778074765 | 24.44° C | 19% | 1013 hPa | 0 mm | - | - | - |
| 1778074164 | 22.78° C | 21% | 1013 hPa | 0 mm | - | - | - |
| 1778073564 | 23.33° C | 19% | 1013 hPa | 0 mm | - | - | - |
| 1778072963 | 23.33° C | 19% | 1013 hPa | 0 mm | - | - | - |
| 1778072363 | 21.67° C | 20% | 1013 hPa | 0 mm | - | - | - |
| 1778071762 | 21.67° C | 20% | 1013 hPa | 0 mm | - | - | - |
| 1778071161 | 22.22° C | 19% | 1013 hPa | 0 mm | - | - | - |
| 1778070561 | 22.22° C | 18% | 1012 hPa | 0 mm | - | - | - |
| 1778069960 | 22.22° C | 19% | 1012 hPa | 0 mm | - | - | - |
| 1778069359 | 20.56° C | 24% | 1012 hPa | 0 mm | - | - | - |
| 1778068759 | 22.22° C | 22% | 1012 hPa | 0 mm | - | - | - |
| 1778068158 | 22.22° C | 22% | 1012 hPa | 0 mm | - | - | - |
| 1778067557 | 22.22° C | 22% | 1012 hPa | 0 mm | - | - | - |
| 1778066957 | 23.89° C | 14% | 1011 hPa | 0 mm | - | - | - |
| 1778066356 | 23.89° C | 14% | 1011 hPa | 0 mm | - | - | - |
| 1778065756 | 23.33° C | 22% | 1011 hPa | 0 mm | - | - | - |
| 1778065155 | 24.44° C | 20% | 1011 hPa | 0 mm | - | - | - |
| 1778064555 | 24.44° C | 20% | 1011 hPa | 0 mm | - | - | - |
| 1778063954 | 24.44° C | 20% | 1011 hPa | 0 mm | - | - | - |
| 1778063353 | 25° C | 13% | 1010 hPa | 0 mm | - | - | - |
| 1778062753 | 25° C | 14% | 1010 hPa | 0 mm | - | - | - |
| 1778062152 | 25° C | 14% | 1010 hPa | 0 mm | - | - | - |
| 1778061551 | 25° C | 13% | 1010 hPa | 0 mm | - | - | - |
| 1778060951 | 25° C | 13% | 1010 hPa | 0 mm | - | - | - |
* Rain latest hour (hover to see other rain measurements)
** Current wind speed in m/s (hover to see current wind gust speed)